Terminal Aerodrome Forecast
Issued by NWS Binghamton, NY

Home | Current Version | Previous Version | Text Only | Print | Product List | Glossary On
Versions: 1 2 3 4 5 6 7 8 9 10 11 12 13 14 15 16 17
018
FTUS41 KBGM 251135
TAFSYR
TAF
KSYR 251135Z 2512/2612 09011KT P6SM OVC080 WS020/11045KT
      TEMPO 2512/2516 -RA OVC040
     FM251600 09012KT P6SM -RA OVC025 WS020/11045KT
     FM251800 09011KT 4SM -RA BR OVC015 WS020/11045KT
     FM252200 09010KT P6SM OVC010
     FM260600 VRB03KT 3SM -SHRA BR OVC008=

USA.gov is the U.S. government's official web portal to all federal, state and local government web resources and services.